sensor_id;sensor_type;location;lat;lon;timestamp;pressure;altitude;pressure_sealevel;temperature;humidity
33795;BME280;51430;52.242;21.118;2023-02-13T00:04:34;101991.20;;;5.01;100.00
33795;BME280;51430;52.242;21.118;2023-02-13T00:07:52;101989.39;;;4.98;100.00
33795;BME280;51430;52.242;21.118;2023-02-13T00:16:39;101992.13;;;4.98;100.00
33795;BME280;51430;52.242;21.118;2023-02-13T00:20:44;101994.20;;;4.99;100.00
33795;BME280;51430;52.242;21.118;2023-02-13T00:24:17;101999.30;;;5.02;100.00
33795;BME280;51430;52.242;21.118;2023-02-13T00:33:28;101975.23;;;5.04;100.00
33795;BME280;51430;52.242;21.118;2023-02-13T00:37:25;101973.77;;;4.99;100.00
33795;BME280;51430;52.242;21.118;2023-02-13T00:41:22;101976.48;;;5.02;100.00
33795;BME280;51430;52.242;21.118;2023-02-13T00:45:17;101975.00;;;5.06;100.00
33795;BME280;51430;52.242;21.118;2023-02-13T00:49:16;101985.77;;;5.10;100.00
33795;BME280;51430;52.242;21.118;2023-02-13T00:53:14;101989.17;;;5.12;99.97
33795;BME280;51430;52.242;21.118;2023-02-13T00:57:09;101986.39;;;5.13;99.93
33795;BME280;51430;52.242;21.118;2023-02-13T01:01:26;101983.18;;;5.10;99.81
33795;BME280;51430;52.242;21.118;2023-02-13T01:04:46;101994.39;;;5.17;99.71
33795;BME280;51430;52.242;21.118;2023-02-13T01:08:42;101993.83;;;5.13;99.25
33795;BME280;51430;52.242;21.118;2023-02-13T01:11:29;101987.61;;;5.06;99.59
33795;BME280;51430;52.242;21.118;2023-02-13T01:14:15;101979.33;;;5.18;99.62
33795;BME280;51430;52.242;21.118;2023-02-13T01:17:02;101982.84;;;5.28;99.22
33795;BME280;51430;52.242;21.118;2023-02-13T01:19:48;101985.73;;;5.36;98.55
33795;BME280;51430;52.242;21.118;2023-02-13T01:24:15;101980.23;;;5.47;97.72
33795;BME280;51430;52.242;21.118;2023-02-13T01:27:33;101980.79;;;5.34;98.02
33795;BME280;51430;52.242;21.118;2023-02-13T01:31:36;101975.70;;;5.24;98.80
33795;BME280;51430;52.242;21.118;2023-02-13T01:35:34;101970.17;;;5.23;99.04
33795;BME280;51430;52.242;21.118;2023-02-13T01:39:31;101968.80;;;5.17;99.31
33795;BME280;51430;52.242;21.118;2023-02-13T01:48:06;101970.77;;;5.15;99.93
33795;BME280;51430;52.242;21.118;2023-02-13T01:51:42;101972.27;;;5.17;99.76
33795;BME280;51430;52.242;21.118;2023-02-13T01:55:48;101969.10;;;5.19;99.67
33795;BME280;51430;52.242;21.118;2023-02-13T02:03:48;101974.29;;;5.25;99.19
33795;BME280;51430;52.242;21.118;2023-02-13T02:07:48;101973.05;;;5.32;99.15
33795;BME280;51430;52.242;21.118;2023-02-13T02:11:55;101974.39;;;5.27;98.77
33795;BME280;51430;52.242;21.118;2023-02-13T02:15:55;101967.70;;;5.26;99.15
33795;BME280;51430;52.242;21.118;2023-02-13T02:50:26;101961.86;;;5.36;98.27
33795;BME280;51430;52.242;21.118;2023-02-13T02:54:36;101970.31;;;5.43;98.10
33795;BME280;51430;52.242;21.118;2023-02-13T02:59:00;101977.30;;;5.41;98.05
33795;BME280;51430;52.242;21.118;2023-02-13T03:03:22;101973.00;;;5.46;97.91
33795;BME280;51430;52.242;21.118;2023-02-13T03:08:05;101973.79;;;5.49;97.85
33795;BME280;51430;52.242;21.118;2023-02-13T03:12:03;101972.92;;;5.42;97.94
33795;BME280;51430;52.242;21.118;2023-02-13T03:16:23;101966.98;;;5.44;98.03
33795;BME280;51430;52.242;21.118;2023-02-13T03:20:50;101965.02;;;5.41;98.24
33795;BME280;51430;52.242;21.118;2023-02-13T03:25:23;101961.90;;;5.47;97.85
33795;BME280;51430;52.242;21.118;2023-02-13T03:34:05;101951.71;;;5.47;97.77
33795;BME280;51430;52.242;21.118;2023-02-13T03:38:29;101952.30;;;5.44;97.84
33795;BME280;51430;52.242;21.118;2023-02-13T03:42:36;101954.66;;;5.40;97.84
33795;BME280;51430;52.242;21.118;2023-02-13T03:46:40;101958.33;;;5.51;97.70
33795;BME280;51430;52.242;21.118;2023-02-13T03:50:40;101955.98;;;5.42;97.95
33795;BME280;51430;52.242;21.118;2023-02-13T03:54:44;101961.00;;;5.48;97.92
33795;BME280;51430;52.242;21.118;2023-02-13T03:59:06;101958.68;;;5.45;97.96
33795;BME280;51430;52.242;21.118;2023-02-13T04:03:34;101958.66;;;5.52;97.71
33795;BME280;51430;52.242;21.118;2023-02-13T04:07:29;101953.52;;;5.50;97.81
33795;BME280;51430;52.242;21.118;2023-02-13T04:11:32;101955.98;;;5.54;97.55
33795;BME280;51430;52.242;21.118;2023-02-13T04:19:59;101954.37;;;5.56;97.48
33795;BME280;51430;52.242;21.118;2023-02-13T04:23:54;101952.80;;;5.51;97.51
33795;BME280;51430;52.242;21.118;2023-02-13T04:26:45;101958.70;;;5.44;97.81
33795;BME280;51430;52.242;21.118;2023-02-13T04:33:47;101955.20;;;5.57;97.38
33795;BME280;51430;52.242;21.118;2023-02-13T04:39:10;101958.17;;;5.67;96.94
33795;BME280;51430;52.242;21.118;2023-02-13T04:43:08;101958.74;;;5.66;96.92
33795;BME280;51430;52.242;21.118;2023-02-13T04:47:03;101960.61;;;5.61;96.99
33795;BME280;51430;52.242;21.118;2023-02-13T04:51:02;101961.33;;;5.61;97.37
33795;BME280;51430;52.242;21.118;2023-02-13T04:54:57;101963.34;;;5.69;97.07
33795;BME280;51430;52.242;21.118;2023-02-13T04:58:54;101957.84;;;5.67;96.91
33795;BME280;51430;52.242;21.118;2023-02-13T05:03:11;101952.41;;;5.64;96.97
33795;BME280;51430;52.242;21.118;2023-02-13T05:06:47;101951.50;;;5.65;97.18
33795;BME280;51430;52.242;21.118;2023-02-13T05:10:05;101946.88;;;5.64;96.92
33795;BME280;51430;52.242;21.118;2023-02-13T05:14:03;101948.63;;;5.69;96.93
33795;BME280;51430;52.242;21.118;2023-02-13T05:16:50;101947.11;;;5.62;97.00
33795;BME280;51430;52.242;21.118;2023-02-13T05:19:36;101947.80;;;5.73;96.76
33795;BME280;51430;52.242;21.118;2023-02-13T05:22:23;101953.59;;;5.76;96.38
33795;BME280;51430;52.242;21.118;2023-02-13T05:25:28;101956.88;;;5.82;95.93
33795;BME280;51430;52.242;21.118;2023-02-13T05:30:48;101950.49;;;5.81;95.91
33795;BME280;51430;52.242;21.118;2023-02-13T05:34:43;101953.33;;;5.79;96.05
33795;BME280;51430;52.242;21.118;2023-02-13T05:38:43;101954.11;;;5.77;96.23
33795;BME280;51430;52.242;21.118;2023-02-13T05:42:40;101950.98;;;5.81;96.11
33795;BME280;51430;52.242;21.118;2023-02-13T05:45:27;101957.51;;;5.78;96.16
33795;BME280;51430;52.242;21.118;2023-02-13T05:48:13;101956.89;;;5.88;95.69
33795;BME280;51430;52.242;21.118;2023-02-13T05:51:00;101966.17;;;5.90;95.47
33795;BME280;51430;52.242;21.118;2023-02-13T05:53:47;101972.64;;;5.93;95.24
33795;BME280;51430;52.242;21.118;2023-02-13T05:56:33;101974.55;;;5.93;95.10
33795;BME280;51430;52.242;21.118;2023-02-13T05:59:20;101980.73;;;5.94;95.21
33795;BME280;51430;52.242;21.118;2023-02-13T06:02:09;101979.35;;;6.01;94.76
33795;BME280;51430;52.242;21.118;2023-02-13T06:04:56;101974.85;;;6.00;94.71
33795;BME280;51430;52.242;21.118;2023-02-13T06:09:30;101978.97;;;6.02;94.52
33795;BME280;51430;52.242;21.118;2023-02-13T06:13:26;101980.23;;;5.93;94.85
33795;BME280;51430;52.242;21.118;2023-02-13T06:16:14;101981.92;;;5.89;95.18
33795;BME280;51430;52.242;21.118;2023-02-13T06:19:06;101983.80;;;5.96;94.67
33795;BME280;51430;52.242;21.118;2023-02-13T06:21:54;101977.34;;;5.98;94.54
33795;BME280;51430;52.242;21.118;2023-02-13T06:25:08;101974.53;;;6.00;94.33
33795;BME280;51430;52.242;21.118;2023-02-13T06:27:55;101974.84;;;6.01;94.11
33795;BME280;51430;52.242;21.118;2023-02-13T06:30:43;101978.24;;;6.08;94.09
33795;BME280;51430;52.242;21.118;2023-02-13T06:33:30;101976.38;;;6.13;93.56
33795;BME280;51430;52.242;21.118;2023-02-13T06:36:18;101973.88;;;6.15;93.37
33795;BME280;51430;52.242;21.118;2023-02-13T06:39:05;101975.79;;;6.15;93.24
33795;BME280;51430;52.242;21.118;2023-02-13T06:45:30;101982.69;;;6.15;93.17
33795;BME280;51430;52.242;21.118;2023-02-13T06:48:17;101986.67;;;6.21;93.10
33795;BME280;51430;52.242;21.118;2023-02-13T06:51:12;101986.82;;;6.22;92.85
33795;BME280;51430;52.242;21.118;2023-02-13T06:55:11;101985.86;;;6.19;93.01
33795;BME280;51430;52.242;21.118;2023-02-13T06:59:06;101984.89;;;6.00;93.26
33795;BME280;51430;52.242;21.118;2023-02-13T07:03:05;101988.35;;;5.95;93.79
33795;BME280;51430;52.242;21.118;2023-02-13T07:07:02;101976.95;;;6.05;93.33
33795;BME280;51430;52.242;21.118;2023-02-13T07:11:00;101974.73;;;5.98;93.13
33795;BME280;51430;52.242;21.118;2023-02-13T07:14:59;101971.00;;;5.96;93.07
33795;BME280;51430;52.242;21.118;2023-02-13T07:18:54;101973.90;;;6.04;92.70
33795;BME280;51430;52.242;21.118;2023-02-13T07:21:41;101977.68;;;5.99;92.63
33795;BME280;51430;52.242;21.118;2023-02-13T07:24:27;101970.29;;;5.97;92.62
33795;BME280;51430;52.242;21.118;2023-02-13T07:27:14;101967.50;;;6.03;92.49
33795;BME280;51430;52.242;21.118;2023-02-13T07:30:01;101976.45;;;6.16;92.09
33795;BME280;51430;52.242;21.118;2023-02-13T07:32:48;101980.83;;;6.25;91.69
33795;BME280;51430;52.242;21.118;2023-02-13T07:35:34;101981.30;;;6.31;91.32
33795;BME280;51430;52.242;21.118;2023-02-13T07:38:23;101983.64;;;6.35;91.16
33795;BME280;51430;52.242;21.118;2023-02-13T07:41:09;101990.39;;;6.50;91.28
33795;BME280;51430;52.242;21.118;2023-02-13T07:43:56;101992.08;;;6.67;90.56
33795;BME280;51430;52.242;21.118;2023-02-13T07:46:43;101989.83;;;6.78;89.67
33795;BME280;51430;52.242;21.118;2023-02-13T07:49:29;101986.98;;;6.90;89.18
33795;BME280;51430;52.242;21.118;2023-02-13T07:53:34;101982.71;;;7.03;88.39
33795;BME280;51430;52.242;21.118;2023-02-13T07:57:03;101984.02;;;7.15;87.83
33795;BME280;51430;52.242;21.118;2023-02-13T07:59:50;101983.23;;;7.08;87.99
33795;BME280;51430;52.242;21.118;2023-02-13T08:02:40;101990.15;;;7.12;88.39
33795;BME280;51430;52.242;21.118;2023-02-13T08:05:30;101988.38;;;7.18;88.33
33795;BME280;51430;52.242;21.118;2023-02-13T08:08:17;101985.02;;;7.25;87.80
33795;BME280;51430;52.242;21.118;2023-02-13T08:11:07;101985.96;;;7.18;87.92
33795;BME280;51430;52.242;21.118;2023-02-13T08:14:16;101982.06;;;7.01;89.22
33795;BME280;51430;52.242;21.118;2023-02-13T08:17:03;101973.59;;;6.91;89.97
33795;BME280;51430;52.242;21.118;2023-02-13T08:21:16;101974.89;;;6.93;91.24
33795;BME280;51430;52.242;21.118;2023-02-13T08:25:12;101974.27;;;6.81;91.90
33795;BME280;51430;52.242;21.118;2023-02-13T08:29:11;101974.84;;;6.89;91.83
33795;BME280;51430;52.242;21.118;2023-02-13T08:44:01;101969.73;;;7.17;90.98
33795;BME280;51430;52.242;21.118;2023-02-13T08:47:06;101967.23;;;7.27;91.08
33795;BME280;51430;52.242;21.118;2023-02-13T09:01:29;101962.61;;;7.99;86.00
33795;BME280;51430;52.242;21.118;2023-02-13T09:23:15;101966.29;;;7.62;84.61
33795;BME280;51430;52.242;21.118;2023-02-13T09:37:40;101967.89;;;7.66;84.46
33795;BME280;51430;52.242;21.118;2023-02-13T09:40:52;101970.29;;;7.62;84.64
33795;BME280;51430;52.242;21.118;2023-02-13T09:43:46;101968.83;;;7.45;84.78
33795;BME280;51430;52.242;21.118;2023-02-13T09:46:37;101969.54;;;7.50;84.75
33795;BME280;51430;52.242;21.118;2023-02-13T09:49:27;101966.25;;;7.54;85.05
33795;BME280;51430;52.242;21.118;2023-02-13T09:54:57;101962.84;;;7.61;86.08
33795;BME280;51430;52.242;21.118;2023-02-13T09:58:42;101971.88;;;7.61;86.06
33795;BME280;51430;52.242;21.118;2023-02-13T10:16:48;101986.54;;;8.18;84.03
33795;BME280;51430;52.242;21.118;2023-02-13T10:20:55;101990.23;;;8.07;84.48
33795;BME280;51430;52.242;21.118;2023-02-13T10:34:57;101979.55;;;8.19;83.17
33795;BME280;51430;52.242;21.118;2023-02-13T10:37:58;101979.19;;;7.83;84.01
33795;BME280;51430;52.242;21.118;2023-02-13T10:45:20;101971.20;;;7.70;85.84
33795;BME280;51430;52.242;21.118;2023-02-13T10:51:36;101955.08;;;7.74;87.03
33795;BME280;51430;52.242;21.118;2023-02-13T10:56:01;101947.39;;;7.71;87.81
33795;BME280;51430;52.242;21.118;2023-02-13T11:09:55;101946.66;;;7.76;86.98
33795;BME280;51430;52.242;21.118;2023-02-13T11:27:09;101937.36;;;8.14;85.54
33795;BME280;51430;52.242;21.118;2023-02-13T11:30:32;101935.81;;;8.23;84.99
33795;BME280;51430;52.242;21.118;2023-02-13T11:44:37;101923.54;;;8.46;85.21
33795;BME280;51430;52.242;21.118;2023-02-13T11:47:36;101909.59;;;7.87;85.16
33795;BME280;51430;52.242;21.118;2023-02-13T11:50:30;101909.58;;;7.66;86.38
33795;BME280;51430;52.242;21.118;2023-02-13T11:53:24;101907.98;;;7.66;87.15
33795;BME280;51430;52.242;21.118;2023-02-13T11:56:47;101908.91;;;7.61;87.02
33795;BME280;51430;52.242;21.118;2023-02-13T13:26:38;101819.17;;;8.36;84.14
33795;BME280;51430;52.242;21.118;2023-02-13T13:30:56;101812.52;;;8.61;82.61
33795;BME280;51430;52.242;21.118;2023-02-13T13:34:20;101811.05;;;8.47;82.53
33795;BME280;51430;52.242;21.118;2023-02-13T13:42:42;101815.89;;;8.19;82.76
33795;BME280;51430;52.242;21.118;2023-02-13T13:46:57;101807.74;;;8.23;82.51
33795;BME280;51430;52.242;21.118;2023-02-13T13:50:27;101814.79;;;8.05;82.25
33795;BME280;51430;52.242;21.118;2023-02-13T13:54:32;101805.44;;;8.12;82.91
33795;BME280;51430;52.242;21.118;2023-02-13T13:58:46;101795.60;;;8.15;82.75
33795;BME280;51430;52.242;21.118;2023-02-13T14:32:33;101782.16;;;7.54;85.18
33795;BME280;51430;52.242;21.118;2023-02-13T14:36:02;101792.98;;;7.48;85.47
33795;BME280;51430;52.242;21.118;2023-02-13T14:39:18;101799.70;;;7.44;85.62
33795;BME280;51430;52.242;21.118;2023-02-13T14:42:26;101802.80;;;7.41;85.51
33795;BME280;51430;52.242;21.118;2023-02-13T14:45:25;101794.67;;;7.36;85.28
33795;BME280;51430;52.242;21.118;2023-02-13T14:48:13;101787.94;;;7.40;85.36
33795;BME280;51430;52.242;21.118;2023-02-13T14:52:00;101779.22;;;7.40;84.95
33795;BME280;51430;52.242;21.118;2023-02-13T14:55:35;101786.05;;;7.30;85.51
33795;BME280;51430;52.242;21.118;2023-02-13T15:00:03;101777.79;;;7.24;85.80
33795;BME280;51430;52.242;21.118;2023-02-13T15:55:30;101760.44;;;7.55;82.50
33795;BME280;51430;52.242;21.118;2023-02-13T16:09:31;101769.59;;;7.47;82.23
33795;BME280;51430;52.242;21.118;2023-02-13T16:23:03;101761.27;;;7.51;81.63
33795;BME280;51430;52.242;21.118;2023-02-13T16:26:00;101754.02;;;7.37;81.84
33795;BME280;51430;52.242;21.118;2023-02-13T17:16:55;101789.09;;;7.32;79.55
33795;BME280;51430;52.242;21.118;2023-02-13T17:30:51;101785.14;;;7.36;78.97
33795;BME280;51430;52.242;21.118;2023-02-13T17:34:19;101779.40;;;7.23;78.83
33795;BME280;51430;52.242;21.118;2023-02-13T17:37:31;101785.55;;;7.16;78.98
33795;BME280;51430;52.242;21.118;2023-02-13T17:40:19;101780.60;;;7.14;79.29
33795;BME280;51430;52.242;21.118;2023-02-13T17:43:29;101782.98;;;7.16;78.80
33795;BME280;51430;52.242;21.118;2023-02-13T18:01:31;101807.36;;;7.26;77.49
33795;BME280;51430;52.242;21.118;2023-02-13T18:16:14;101821.20;;;7.27;76.77
33795;BME280;51430;52.242;21.118;2023-02-13T18:19:00;101825.93;;;7.17;77.08
33795;BME280;51430;52.242;21.118;2023-02-13T18:21:45;101830.20;;;7.19;76.96
33795;BME280;51430;52.242;21.118;2023-02-13T18:24:31;101829.51;;;7.14;77.03
33795;BME280;51430;52.242;21.118;2023-02-13T18:34:56;101836.02;;;7.08;77.02
33795;BME280;51430;52.242;21.118;2023-02-13T18:37:42;101833.23;;;6.99;77.35
33795;BME280;51430;52.242;21.118;2023-02-13T18:40:29;101825.41;;;7.13;76.39
33795;BME280;51430;52.242;21.118;2023-02-13T18:43:15;101817.19;;;7.14;76.05
33795;BME280;51430;52.242;21.118;2023-02-13T18:46:02;101817.55;;;7.14;76.10
33795;BME280;51430;52.242;21.118;2023-02-13T18:50:10;101824.57;;;7.12;75.62
33795;BME280;51430;52.242;21.118;2023-02-13T18:54:07;101818.88;;;6.98;76.33
33795;BME280;51430;52.242;21.118;2023-02-13T18:58:06;101818.11;;;7.00;76.60
33795;BME280;51430;52.242;21.118;2023-02-13T19:02:22;101826.67;;;6.93;76.65
33795;BME280;51430;52.242;21.118;2023-02-13T19:05:42;101834.94;;;6.86;77.29
33795;BME280;51430;52.242;21.118;2023-02-13T19:08:28;101833.90;;;6.86;77.40
33795;BME280;51430;52.242;21.118;2023-02-13T19:11:29;101835.43;;;6.91;77.29
33795;BME280;51430;52.242;21.118;2023-02-13T19:14:16;101830.86;;;6.97;77.05
33795;BME280;51430;52.242;21.118;2023-02-13T19:17:02;101828.64;;;7.01;76.80
33795;BME280;51430;52.242;21.118;2023-02-13T19:19:49;101835.72;;;7.06;77.02
33795;BME280;51430;52.242;21.118;2023-02-13T19:33:24;101838.34;;;7.15;76.36
33795;BME280;51430;52.242;21.118;2023-02-13T19:36:53;101843.80;;;7.04;77.06
33795;BME280;51430;52.242;21.118;2023-02-13T19:50:25;101853.96;;;7.14;76.32
33795;BME280;51430;52.242;21.118;2023-02-13T19:53:24;101855.95;;;7.03;76.49
33795;BME280;51430;52.242;21.118;2023-02-13T19:57:21;101862.02;;;6.89;77.34
33795;BME280;51430;52.242;21.118;2023-02-13T20:26:04;101857.23;;;7.01;76.37
33795;BME280;51430;52.242;21.118;2023-02-13T20:53:15;101842.96;;;6.89;76.80
33795;BME280;51430;52.242;21.118;2023-02-13T21:01:35;101845.81;;;6.53;78.15
33795;BME280;51430;52.242;21.118;2023-02-13T21:31:16;101844.02;;;6.69;78.11
33795;BME280;51430;52.242;21.118;2023-02-13T21:34:58;101841.30;;;6.53;78.75
33795;BME280;51430;52.242;21.118;2023-02-13T21:49:37;101827.11;;;6.58;78.73
33795;BME280;51430;52.242;21.118;2023-02-13T22:08:14;101812.63;;;6.42;79.14
33795;BME280;51430;52.242;21.118;2023-02-13T22:11:25;101812.75;;;6.28;79.96
33795;BME280;51430;52.242;21.118;2023-02-13T22:20:39;101822.21;;;6.10;81.00
33795;BME280;51430;52.242;21.118;2023-02-13T22:24:36;101827.75;;;6.15;81.06
33795;BME280;51430;52.242;21.118;2023-02-13T22:28:32;101826.57;;;6.09;81.33
33795;BME280;51430;52.242;21.118;2023-02-13T22:32:31;101827.50;;;6.12;81.46
33795;BME280;51430;52.242;21.118;2023-02-13T22:36:30;101830.52;;;6.10;81.18
33795;BME280;51430;52.242;21.118;2023-02-13T22:40:25;101827.16;;;6.12;81.31
33795;BME280;51430;52.242;21.118;2023-02-13T22:44:23;101828.67;;;6.08;81.66
33795;BME280;51430;52.242;21.118;2023-02-13T22:59:10;101823.56;;;6.41;80.60
33795;BME280;51430;52.242;21.118;2023-02-13T23:02:04;101817.75;;;6.34;80.62
33795;BME280;51430;52.242;21.118;2023-02-13T23:06:02;101823.91;;;6.21;81.25
33795;BME280;51430;52.242;21.118;2023-02-13T23:10:03;101832.27;;;6.20;81.59
33795;BME280;51430;52.242;21.118;2023-02-13T23:14:01;101831.91;;;6.20;81.27
33795;BME280;51430;52.242;21.118;2023-02-13T23:18:01;101837.30;;;6.14;81.78
33795;BME280;51430;52.242;21.118;2023-02-13T23:32:37;101850.56;;;6.37;81.09
33795;BME280;51430;52.242;21.118;2023-02-13T23:35:33;101846.98;;;6.20;81.58
33795;BME280;51430;52.242;21.118;2023-02-13T23:39:41;101846.21;;;6.22;81.39
33795;BME280;51430;52.242;21.118;2023-02-13T23:43:08;101842.41;;;6.22;81.65
33795;BME280;51430;52.242;21.118;2023-02-13T23:47:05;101832.62;;;6.09;82.19
33795;BME280;51430;52.242;21.118;2023-02-13T23:51:03;101826.14;;;6.12;82.13
33795;BME280;51430;52.242;21.118;2023-02-13T23:54:58;101823.27;;;6.14;82.30
33795;BME280;51430;52.242;21.118;2023-02-13T23:59:15;101822.91;;;6.15;82.01
